Ventero, New Mexico
Current Conditions -  °F | °C
As of 10:35 AM on Sunday 23 Nov 2014 (Local Time) from KSKX Reporting Station
Overcast Overcast  
Wind Chill: 26°   Ceiling: 2200
Heat Index: 32°   Visibility: 1.5mi
Dew Point: 27°   Wind: 7mph
Humidity: 80%   Direction: 330°NNW
Pressure: 29.8"   Gusts: NA
Location:  36.9654°N, 105.429°W
Report Text: KSKX 231735Z AUTO 33006KT 1 1/2SM SCT013 BKN022 OVC029 00/M03 A2980 RMK AO1
Loading
Personal Weather Stations






























Interactive Weather Map New forecast layout! Learn more

10-Day Weather Forecast

Advertisements
Track Severe Weather on mobile